sensor_id;sensor_type;location;lat;lon;timestamp;temperature;humidity
19007;DHT22;9636;47.382;8.480;2024-02-14T00:00:49;7.90;99.90
19007;DHT22;9636;47.382;8.480;2024-02-14T00:03:16;7.90;99.90
19007;DHT22;9636;47.382;8.480;2024-02-14T00:05:44;7.70;99.90
19007;DHT22;9636;47.382;8.480;2024-02-14T00:08:11;7.50;99.90
19007;DHT22;9636;47.382;8.480;2024-02-14T00:10:40;7.50;99.90
19007;DHT22;9636;47.382;8.480;2024-02-14T00:13:09;7.50;99.90
19007;DHT22;9636;47.382;8.480;2024-02-14T00:15:36;7.50;99.90
19007;DHT22;9636;47.382;8.480;2024-02-14T00:18:03;7.60;99.90
19007;DHT22;9636;47.382;8.480;2024-02-14T00:20:30;7.80;99.90
19007;DHT22;9636;47.382;8.480;2024-02-14T00:22:59;7.90;99.90
19007;DHT22;9636;47.382;8.480;2024-02-14T00:25:27;7.90;99.90
19007;DHT22;9636;47.382;8.480;2024-02-14T00:27:55;7.90;99.90
19007;DHT22;9636;47.382;8.480;2024-02-14T00:30:23;7.60;99.90
19007;DHT22;9636;47.382;8.480;2024-02-14T00:32:51;7.90;99.90
19007;DHT22;9636;47.382;8.480;2024-02-14T00:35:17;7.70;99.90
19007;DHT22;9636;47.382;8.480;2024-02-14T00:37:44;7.70;99.90
19007;DHT22;9636;47.382;8.480;2024-02-14T00:40:13;7.70;99.90
19007;DHT22;9636;47.382;8.480;2024-02-14T00:42:40;7.50;99.90
19007;DHT22;9636;47.382;8.480;2024-02-14T00:45:07;7.70;99.90
19007;DHT22;9636;47.382;8.480;2024-02-14T00:47:35;7.70;99.90
19007;DHT22;9636;47.382;8.480;2024-02-14T00:50:02;7.50;99.90
19007;DHT22;9636;47.382;8.480;2024-02-14T00:52:28;7.60;99.90
19007;DHT22;9636;47.382;8.480;2024-02-14T00:54:55;7.50;99.90
19007;DHT22;9636;47.382;8.480;2024-02-14T00:57:24;7.60;99.90
19007;DHT22;9636;47.382;8.480;2024-02-14T00:59:51;7.40;99.90
19007;DHT22;9636;47.382;8.480;2024-02-14T01:02:18;7.60;99.90
19007;DHT22;9636;47.382;8.480;2024-02-14T01:04:45;7.60;99.90
19007;DHT22;9636;47.382;8.480;2024-02-14T01:07:12;7.60;99.90
19007;DHT22;9636;47.382;8.480;2024-02-14T01:09:39;7.80;99.90
19007;DHT22;9636;47.382;8.480;2024-02-14T01:12:06;7.80;99.90
19007;DHT22;9636;47.382;8.480;2024-02-14T01:14:34;7.80;99.90
19007;DHT22;9636;47.382;8.480;2024-02-14T01:17:01;7.80;99.90
19007;DHT22;9636;47.382;8.480;2024-02-14T01:19:29;7.60;99.90
19007;DHT22;9636;47.382;8.480;2024-02-14T01:21:56;7.70;99.90
19007;DHT22;9636;47.382;8.480;2024-02-14T01:24:23;7.70;99.90
19007;DHT22;9636;47.382;8.480;2024-02-14T01:26:52;7.70;99.90
19007;DHT22;9636;47.382;8.480;2024-02-14T01:29:20;7.60;99.90
19007;DHT22;9636;47.382;8.480;2024-02-14T01:31:49;7.60;99.90
19007;DHT22;9636;47.382;8.480;2024-02-14T01:34:16;7.50;99.90
19007;DHT22;9636;47.382;8.480;2024-02-14T01:36:43;7.30;99.90
19007;DHT22;9636;47.382;8.480;2024-02-14T01:39:10;7.20;99.90
19007;DHT22;9636;47.382;8.480;2024-02-14T01:41:37;7.30;99.90
19007;DHT22;9636;47.382;8.480;2024-02-14T01:44:04;7.30;99.90
19007;DHT22;9636;47.382;8.480;2024-02-14T01:46:30;7.30;99.90
19007;DHT22;9636;47.382;8.480;2024-02-14T01:48:59;7.40;99.90
19007;DHT22;9636;47.382;8.480;2024-02-14T01:51:25;7.40;99.90
19007;DHT22;9636;47.382;8.480;2024-02-14T01:53:53;7.50;99.90
19007;DHT22;9636;47.382;8.480;2024-02-14T01:56:21;7.50;99.90
19007;DHT22;9636;47.382;8.480;2024-02-14T01:58:48;7.60;99.90
19007;DHT22;9636;47.382;8.480;2024-02-14T02:01:16;7.60;99.90
19007;DHT22;9636;47.382;8.480;2024-02-14T02:03:43;7.60;99.90
19007;DHT22;9636;47.382;8.480;2024-02-14T02:06:12;7.50;99.90
19007;DHT22;9636;47.382;8.480;2024-02-14T02:08:42;7.50;99.90
19007;DHT22;9636;47.382;8.480;2024-02-14T02:11:09;7.40;99.90
19007;DHT22;9636;47.382;8.480;2024-02-14T02:13:36;7.30;99.90
19007;DHT22;9636;47.382;8.480;2024-02-14T02:16:05;7.30;99.90
19007;DHT22;9636;47.382;8.480;2024-02-14T02:18:32;7.20;99.90
19007;DHT22;9636;47.382;8.480;2024-02-14T02:20:58;7.10;99.90
19007;DHT22;9636;47.382;8.480;2024-02-14T02:23:27;7.20;99.90
19007;DHT22;9636;47.382;8.480;2024-02-14T02:25:53;7.20;99.90
19007;DHT22;9636;47.382;8.480;2024-02-14T02:28:20;7.20;99.90
19007;DHT22;9636;47.382;8.480;2024-02-14T02:30:47;7.20;99.90
19007;DHT22;9636;47.382;8.480;2024-02-14T02:33:14;7.10;99.90
19007;DHT22;9636;47.382;8.480;2024-02-14T02:35:41;7.10;99.90
19007;DHT22;9636;47.382;8.480;2024-02-14T02:38:10;6.90;99.90
19007;DHT22;9636;47.382;8.480;2024-02-14T02:40:38;7.10;99.90
19007;DHT22;9636;47.382;8.480;2024-02-14T02:43:05;7.20;99.90
19007;DHT22;9636;47.382;8.480;2024-02-14T02:45:32;7.10;99.90
19007;DHT22;9636;47.382;8.480;2024-02-14T02:47:59;7.10;99.90
19007;DHT22;9636;47.382;8.480;2024-02-14T02:50:26;7.00;99.90
19007;DHT22;9636;47.382;8.480;2024-02-14T02:52:53;6.90;99.90
19007;DHT22;9636;47.382;8.480;2024-02-14T02:55:21;6.80;99.90
19007;DHT22;9636;47.382;8.480;2024-02-14T02:57:50;6.80;99.90
19007;DHT22;9636;47.382;8.480;2024-02-14T03:00:18;6.70;99.90
19007;DHT22;9636;47.382;8.480;2024-02-14T03:02:46;6.50;99.90
19007;DHT22;9636;47.382;8.480;2024-02-14T03:05:14;6.50;99.90
19007;DHT22;9636;47.382;8.480;2024-02-14T03:07:44;6.70;99.90
19007;DHT22;9636;47.382;8.480;2024-02-14T03:10:13;6.90;99.90
19007;DHT22;9636;47.382;8.480;2024-02-14T03:12:44;6.90;99.90
19007;DHT22;9636;47.382;8.480;2024-02-14T03:15:12;6.90;99.90
19007;DHT22;9636;47.382;8.480;2024-02-14T03:17:39;6.90;99.90
19007;DHT22;9636;47.382;8.480;2024-02-14T03:20:07;6.90;99.90
19007;DHT22;9636;47.382;8.480;2024-02-14T03:22:38;7.10;99.90
19007;DHT22;9636;47.382;8.480;2024-02-14T03:25:11;7.00;99.90
19007;DHT22;9636;47.382;8.480;2024-02-14T03:27:38;7.00;99.90
19007;DHT22;9636;47.382;8.480;2024-02-14T03:30:06;6.90;99.90
19007;DHT22;9636;47.382;8.480;2024-02-14T03:32:35;7.00;99.90
19007;DHT22;9636;47.382;8.480;2024-02-14T03:35:01;7.00;99.90
19007;DHT22;9636;47.382;8.480;2024-02-14T03:37:28;7.00;99.90
19007;DHT22;9636;47.382;8.480;2024-02-14T03:39:55;7.00;99.90
19007;DHT22;9636;47.382;8.480;2024-02-14T03:42:22;7.10;99.90
19007;DHT22;9636;47.382;8.480;2024-02-14T03:44:49;7.00;99.90
19007;DHT22;9636;47.382;8.480;2024-02-14T03:47:16;6.90;99.90
19007;DHT22;9636;47.382;8.480;2024-02-14T03:49:44;6.90;99.90
19007;DHT22;9636;47.382;8.480;2024-02-14T03:52:10;6.90;99.90
19007;DHT22;9636;47.382;8.480;2024-02-14T03:54:37;7.00;99.90
19007;DHT22;9636;47.382;8.480;2024-02-14T03:57:04;7.00;99.90
19007;DHT22;9636;47.382;8.480;2024-02-14T03:59:35;7.00;99.90
19007;DHT22;9636;47.382;8.480;2024-02-14T04:02:04;7.00;99.90
19007;DHT22;9636;47.382;8.480;2024-02-14T04:04:32;6.90;99.90
19007;DHT22;9636;47.382;8.480;2024-02-14T04:07:02;7.00;99.90
19007;DHT22;9636;47.382;8.480;2024-02-14T04:09:29;6.90;99.90
19007;DHT22;9636;47.382;8.480;2024-02-14T04:11:56;6.80;99.90
19007;DHT22;9636;47.382;8.480;2024-02-14T04:14:22;6.80;99.90
19007;DHT22;9636;47.382;8.480;2024-02-14T04:16:49;6.80;99.90
19007;DHT22;9636;47.382;8.480;2024-02-14T04:19:16;6.80;99.90
19007;DHT22;9636;47.382;8.480;2024-02-14T04:21:43;6.70;99.90
19007;DHT22;9636;47.382;8.480;2024-02-14T04:24:11;6.60;99.90
19007;DHT22;9636;47.382;8.480;2024-02-14T04:26:38;6.70;99.90
19007;DHT22;9636;47.382;8.480;2024-02-14T04:29:07;6.70;99.90
19007;DHT22;9636;47.382;8.480;2024-02-14T04:31:34;6.60;99.90
19007;DHT22;9636;47.382;8.480;2024-02-14T04:34:01;6.70;99.90
19007;DHT22;9636;47.382;8.480;2024-02-14T04:36:27;6.80;99.90
19007;DHT22;9636;47.382;8.480;2024-02-14T04:38:56;6.80;99.90
19007;DHT22;9636;47.382;8.480;2024-02-14T04:41:25;6.70;99.90
19007;DHT22;9636;47.382;8.480;2024-02-14T04:43:51;6.70;99.90
19007;DHT22;9636;47.382;8.480;2024-02-14T04:46:18;6.70;99.90
19007;DHT22;9636;47.382;8.480;2024-02-14T04:48:47;6.60;99.90
19007;DHT22;9636;47.382;8.480;2024-02-14T04:51:14;6.60;99.90
19007;DHT22;9636;47.382;8.480;2024-02-14T04:53:41;6.60;99.90
19007;DHT22;9636;47.382;8.480;2024-02-14T04:56:08;6.60;99.90
19007;DHT22;9636;47.382;8.480;2024-02-14T04:58:36;6.60;99.90
19007;DHT22;9636;47.382;8.480;2024-02-14T05:01:03;6.90;99.90
19007;DHT22;9636;47.382;8.480;2024-02-14T05:03:30;7.00;99.90
19007;DHT22;9636;47.382;8.480;2024-02-14T05:05:57;7.00;99.90
19007;DHT22;9636;47.382;8.480;2024-02-14T05:08:24;7.00;99.90
19007;DHT22;9636;47.382;8.480;2024-02-14T05:10:51;7.00;99.90
19007;DHT22;9636;47.382;8.480;2024-02-14T05:13:17;6.90;99.90
19007;DHT22;9636;47.382;8.480;2024-02-14T05:15:46;6.80;99.90
19007;DHT22;9636;47.382;8.480;2024-02-14T05:18:12;6.90;99.90
19007;DHT22;9636;47.382;8.480;2024-02-14T05:20:39;6.80;99.90
19007;DHT22;9636;47.382;8.480;2024-02-14T05:23:06;6.80;99.90
19007;DHT22;9636;47.382;8.480;2024-02-14T05:25:33;6.80;99.90
19007;DHT22;9636;47.382;8.480;2024-02-14T05:28:00;6.90;99.90
19007;DHT22;9636;47.382;8.480;2024-02-14T05:30:27;6.90;99.90
19007;DHT22;9636;47.382;8.480;2024-02-14T05:32:55;6.80;99.90
19007;DHT22;9636;47.382;8.480;2024-02-14T05:35:22;6.90;99.90
19007;DHT22;9636;47.382;8.480;2024-02-14T05:37:49;6.80;99.90
19007;DHT22;9636;47.382;8.480;2024-02-14T05:40:17;6.90;99.90
19007;DHT22;9636;47.382;8.480;2024-02-14T05:42:44;6.90;99.90
19007;DHT22;9636;47.382;8.480;2024-02-14T05:45:11;6.80;99.90
19007;DHT22;9636;47.382;8.480;2024-02-14T05:47:38;6.80;99.90
19007;DHT22;9636;47.382;8.480;2024-02-14T05:50:07;6.80;99.90
19007;DHT22;9636;47.382;8.480;2024-02-14T05:52:37;6.90;99.90
19007;DHT22;9636;47.382;8.480;2024-02-14T05:55:04;6.80;99.90
19007;DHT22;9636;47.382;8.480;2024-02-14T05:57:31;6.70;99.90
19007;DHT22;9636;47.382;8.480;2024-02-14T05:59:58;6.60;99.90
19007;DHT22;9636;47.382;8.480;2024-02-14T06:02:25;6.50;99.90
19007;DHT22;9636;47.382;8.480;2024-02-14T06:04:52;6.40;99.90
19007;DHT22;9636;47.382;8.480;2024-02-14T06:07:20;6.40;99.90
19007;DHT22;9636;47.382;8.480;2024-02-14T06:09:47;6.60;99.90
19007;DHT22;9636;47.382;8.480;2024-02-14T06:12:14;6.70;99.90
19007;DHT22;9636;47.382;8.480;2024-02-14T06:14:40;6.80;99.90
19007;DHT22;9636;47.382;8.480;2024-02-14T06:17:07;6.80;99.90
19007;DHT22;9636;47.382;8.480;2024-02-14T06:19:34;6.70;99.90
19007;DHT22;9636;47.382;8.480;2024-02-14T06:22:01;6.80;99.90
19007;DHT22;9636;47.382;8.480;2024-02-14T06:24:29;6.70;99.90
19007;DHT22;9636;47.382;8.480;2024-02-14T06:26:56;6.70;99.90
19007;DHT22;9636;47.382;8.480;2024-02-14T06:29:23;6.80;99.90
19007;DHT22;9636;47.382;8.480;2024-02-14T06:31:50;6.80;99.90
19007;DHT22;9636;47.382;8.480;2024-02-14T06:34:16;6.90;99.90
19007;DHT22;9636;47.382;8.480;2024-02-14T06:36:45;6.90;99.90
19007;DHT22;9636;47.382;8.480;2024-02-14T06:39:12;7.00;99.90
19007;DHT22;9636;47.382;8.480;2024-02-14T06:41:40;6.90;99.90
19007;DHT22;9636;47.382;8.480;2024-02-14T06:44:09;6.90;99.90
19007;DHT22;9636;47.382;8.480;2024-02-14T06:46:36;6.90;99.90
19007;DHT22;9636;47.382;8.480;2024-02-14T06:49:03;6.90;99.90
19007;DHT22;9636;47.382;8.480;2024-02-14T06:51:30;6.90;99.90
19007;DHT22;9636;47.382;8.480;2024-02-14T06:53:57;6.80;99.90
19007;DHT22;9636;47.382;8.480;2024-02-14T06:56:23;6.80;99.90
19007;DHT22;9636;47.382;8.480;2024-02-14T06:58:51;6.80;99.90
19007;DHT22;9636;47.382;8.480;2024-02-14T07:01:19;6.70;99.90
19007;DHT22;9636;47.382;8.480;2024-02-14T07:03:47;6.80;99.90
19007;DHT22;9636;47.382;8.480;2024-02-14T07:06:14;6.80;99.90
19007;DHT22;9636;47.382;8.480;2024-02-14T07:08:41;6.90;99.90
19007;DHT22;9636;47.382;8.480;2024-02-14T07:11:08;6.90;99.90
19007;DHT22;9636;47.382;8.480;2024-02-14T07:13:35;7.00;99.90
19007;DHT22;9636;47.382;8.480;2024-02-14T07:16:03;7.00;99.90
19007;DHT22;9636;47.382;8.480;2024-02-14T07:18:30;7.20;99.90
19007;DHT22;9636;47.382;8.480;2024-02-14T07:20:57;7.20;99.90
19007;DHT22;9636;47.382;8.480;2024-02-14T07:23:23;7.30;99.90
19007;DHT22;9636;47.382;8.480;2024-02-14T07:25:51;7.40;99.90
19007;DHT22;9636;47.382;8.480;2024-02-14T07:28:18;7.40;99.90
19007;DHT22;9636;47.382;8.480;2024-02-14T07:30:45;7.50;99.90
19007;DHT22;9636;47.382;8.480;2024-02-14T07:33:15;7.50;99.90
19007;DHT22;9636;47.382;8.480;2024-02-14T07:35:42;7.50;99.90
19007;DHT22;9636;47.382;8.480;2024-02-14T07:38:09;7.50;99.90
19007;DHT22;9636;47.382;8.480;2024-02-14T07:40:36;7.60;99.90
19007;DHT22;9636;47.382;8.480;2024-02-14T07:43:03;7.70;99.90
19007;DHT22;9636;47.382;8.480;2024-02-14T07:45:31;7.70;99.90
19007;DHT22;9636;47.382;8.480;2024-02-14T07:47:57;7.70;99.90
19007;DHT22;9636;47.382;8.480;2024-02-14T07:50:25;7.70;99.90
19007;DHT22;9636;47.382;8.480;2024-02-14T07:52:53;7.70;99.90
19007;DHT22;9636;47.382;8.480;2024-02-14T07:55:20;7.80;99.90
19007;DHT22;9636;47.382;8.480;2024-02-14T07:57:48;7.70;99.90
19007;DHT22;9636;47.382;8.480;2024-02-14T08:00:20;7.70;99.90
19007;DHT22;9636;47.382;8.480;2024-02-14T08:02:49;7.80;99.90
19007;DHT22;9636;47.382;8.480;2024-02-14T08:05:16;7.80;99.90
19007;DHT22;9636;47.382;8.480;2024-02-14T08:07:45;7.90;99.90
19007;DHT22;9636;47.382;8.480;2024-02-14T08:10:13;7.90;99.90
19007;DHT22;9636;47.382;8.480;2024-02-14T08:12:38;8.10;99.90
19007;DHT22;9636;47.382;8.480;2024-02-14T08:15:06;8.20;99.90
19007;DHT22;9636;47.382;8.480;2024-02-14T08:17:33;8.20;99.90
19007;DHT22;9636;47.382;8.480;2024-02-14T08:20:01;8.30;99.90
19007;DHT22;9636;47.382;8.480;2024-02-14T08:22:29;8.30;99.90
19007;DHT22;9636;47.382;8.480;2024-02-14T08:24:57;8.40;99.90
19007;DHT22;9636;47.382;8.480;2024-02-14T08:27:24;8.50;99.90
19007;DHT22;9636;47.382;8.480;2024-02-14T08:29:53;8.50;99.90
19007;DHT22;9636;47.382;8.480;2024-02-14T08:32:20;8.60;99.90
19007;DHT22;9636;47.382;8.480;2024-02-14T08:34:47;8.50;99.90
19007;DHT22;9636;47.382;8.480;2024-02-14T08:37:15;8.60;99.90
19007;DHT22;9636;47.382;8.480;2024-02-14T08:39:42;8.70;99.90
19007;DHT22;9636;47.382;8.480;2024-02-14T08:42:10;8.80;99.90
19007;DHT22;9636;47.382;8.480;2024-02-14T08:44:37;8.90;99.90
19007;DHT22;9636;47.382;8.480;2024-02-14T08:47:04;8.90;99.90
19007;DHT22;9636;47.382;8.480;2024-02-14T08:49:31;8.90;99.90
19007;DHT22;9636;47.382;8.480;2024-02-14T08:51:57;9.00;99.90
19007;DHT22;9636;47.382;8.480;2024-02-14T08:54:24;9.10;99.90
19007;DHT22;9636;47.382;8.480;2024-02-14T08:56:53;9.20;99.90
19007;DHT22;9636;47.382;8.480;2024-02-14T08:59:25;9.20;99.90
19007;DHT22;9636;47.382;8.480;2024-02-14T09:01:52;9.20;99.90
19007;DHT22;9636;47.382;8.480;2024-02-14T09:04:18;9.30;99.90
19007;DHT22;9636;47.382;8.480;2024-02-14T09:06:45;9.30;99.90
19007;DHT22;9636;47.382;8.480;2024-02-14T09:09:12;9.30;99.90
19007;DHT22;9636;47.382;8.480;2024-02-14T09:11:39;9.30;99.90
19007;DHT22;9636;47.382;8.480;2024-02-14T09:14:07;9.40;99.90
19007;DHT22;9636;47.382;8.480;2024-02-14T09:16:37;9.40;99.90
19007;DHT22;9636;47.382;8.480;2024-02-14T09:19:04;9.50;99.90
19007;DHT22;9636;47.382;8.480;2024-02-14T09:21:33;9.40;99.90
19007;DHT22;9636;47.382;8.480;2024-02-14T09:24:01;9.40;99.90
19007;DHT22;9636;47.382;8.480;2024-02-14T09:26:28;9.50;99.90
19007;DHT22;9636;47.382;8.480;2024-02-14T09:28:55;9.50;99.90
19007;DHT22;9636;47.382;8.480;2024-02-14T09:31:22;9.70;99.90
19007;DHT22;9636;47.382;8.480;2024-02-14T09:33:51;9.70;99.90
19007;DHT22;9636;47.382;8.480;2024-02-14T09:36:22;9.70;99.90
19007;DHT22;9636;47.382;8.480;2024-02-14T09:38:49;9.80;99.90
19007;DHT22;9636;47.382;8.480;2024-02-14T09:41:26;9.80;99.90
19007;DHT22;9636;47.382;8.480;2024-02-14T09:43:53;9.80;99.90
19007;DHT22;9636;47.382;8.480;2024-02-14T09:46:23;10.00;99.90
19007;DHT22;9636;47.382;8.480;2024-02-14T09:48:52;10.00;99.90
19007;DHT22;9636;47.382;8.480;2024-02-14T09:51:21;10.10;99.90
19007;DHT22;9636;47.382;8.480;2024-02-14T09:53:50;10.10;99.90
19007;DHT22;9636;47.382;8.480;2024-02-14T09:56:19;10.20;99.90
19007;DHT22;9636;47.382;8.480;2024-02-14T09:58:49;10.30;99.50
19007;DHT22;9636;47.382;8.480;2024-02-14T10:01:21;10.40;99.80
19007;DHT22;9636;47.382;8.480;2024-02-14T10:03:49;10.30;99.50
19007;DHT22;9636;47.382;8.480;2024-02-14T10:06:19;10.40;99.90
19007;DHT22;9636;47.382;8.480;2024-02-14T10:08:46;10.50;99.90
19007;DHT22;9636;47.382;8.480;2024-02-14T10:11:13;10.60;99.90
19007;DHT22;9636;47.382;8.480;2024-02-14T10:13:40;10.60;99.20
19007;DHT22;9636;47.382;8.480;2024-02-14T10:16:07;10.90;99.90
19007;DHT22;9636;47.382;8.480;2024-02-14T10:18:35;11.10;98.50
19007;DHT22;9636;47.382;8.480;2024-02-14T10:21:01;11.50;98.70
19007;DHT22;9636;47.382;8.480;2024-02-14T10:23:31;11.70;98.40
19007;DHT22;9636;47.382;8.480;2024-02-14T10:25:59;11.90;99.80
19007;DHT22;9636;47.382;8.480;2024-02-14T10:28:26;12.00;98.30
19007;DHT22;9636;47.382;8.480;2024-02-14T10:30:54;12.10;97.50
19007;DHT22;9636;47.382;8.480;2024-02-14T10:33:22;12.30;98.30
19007;DHT22;9636;47.382;8.480;2024-02-14T10:35:50;12.70;97.00
19007;DHT22;9636;47.382;8.480;2024-02-14T10:38:17;13.00;97.60
19007;DHT22;9636;47.382;8.480;2024-02-14T10:40:47;13.40;97.30
19007;DHT22;9636;47.382;8.480;2024-02-14T10:43:15;13.40;96.40
19007;DHT22;9636;47.382;8.480;2024-02-14T10:45:42;13.20;95.70
19007;DHT22;9636;47.382;8.480;2024-02-14T10:48:11;13.00;95.00
19007;DHT22;9636;47.382;8.480;2024-02-14T10:50:41;13.20;94.50
19007;DHT22;9636;47.382;8.480;2024-02-14T10:53:12;13.10;95.10
19007;DHT22;9636;47.382;8.480;2024-02-14T10:55:40;13.50;95.20
19007;DHT22;9636;47.382;8.480;2024-02-14T10:58:10;13.60;93.90
19007;DHT22;9636;47.382;8.480;2024-02-14T11:00:39;13.70;94.60
19007;DHT22;9636;47.382;8.480;2024-02-14T11:03:06;14.00;94.00
19007;DHT22;9636;47.382;8.480;2024-02-14T11:05:43;14.40;94.10
19007;DHT22;9636;47.382;8.480;2024-02-14T11:08:14;14.80;93.00
19007;DHT22;9636;47.382;8.480;2024-02-14T11:10:40;15.30;92.60
19007;DHT22;9636;47.382;8.480;2024-02-14T11:13:12;15.40;92.40
19007;DHT22;9636;47.382;8.480;2024-02-14T11:15:40;15.20;91.10
19007;DHT22;9636;47.382;8.480;2024-02-14T11:18:07;15.10;91.40
19007;DHT22;9636;47.382;8.480;2024-02-14T11:20:35;14.90;91.10
19007;DHT22;9636;47.382;8.480;2024-02-14T11:23:03;14.90;91.90
19007;DHT22;9636;47.382;8.480;2024-02-14T11:25:32;15.10;90.90
19007;DHT22;9636;47.382;8.480;2024-02-14T11:27:59;15.60;90.80
19007;DHT22;9636;47.382;8.480;2024-02-14T11:30:34;15.90;90.50
19007;DHT22;9636;47.382;8.480;2024-02-14T11:33:13;16.10;89.70
19007;DHT22;9636;47.382;8.480;2024-02-14T11:35:41;16.00;89.90
19007;DHT22;9636;47.382;8.480;2024-02-14T11:38:08;16.10;89.80
19007;DHT22;9636;47.382;8.480;2024-02-14T11:40:35;16.20;89.90
19007;DHT22;9636;47.382;8.480;2024-02-14T11:43:04;15.90;87.90
19007;DHT22;9636;47.382;8.480;2024-02-14T11:45:32;15.90;90.90
19007;DHT22;9636;47.382;8.480;2024-02-14T11:47:59;15.90;90.60
19007;DHT22;9636;47.382;8.480;2024-02-14T11:50:25;15.90;90.70
19007;DHT22;9636;47.382;8.480;2024-02-14T11:52:52;16.10;92.10
19007;DHT22;9636;47.382;8.480;2024-02-14T11:55:27;16.40;91.80
19007;DHT22;9636;47.382;8.480;2024-02-14T11:57:54;16.60;90.90
19007;DHT22;9636;47.382;8.480;2024-02-14T12:00:21;16.60;91.20
19007;DHT22;9636;47.382;8.480;2024-02-14T12:02:50;16.60;89.30
19007;DHT22;9636;47.382;8.480;2024-02-14T12:05:17;16.70;91.60
19007;DHT22;9636;47.382;8.480;2024-02-14T12:07:45;16.60;90.40
19007;DHT22;9636;47.382;8.480;2024-02-14T12:10:12;16.60;91.00
19007;DHT22;9636;47.382;8.480;2024-02-14T12:12:39;16.40;90.50
19007;DHT22;9636;47.382;8.480;2024-02-14T12:15:09;16.30;91.20
19007;DHT22;9636;47.382;8.480;2024-02-14T12:17:36;16.20;90.30
19007;DHT22;9636;47.382;8.480;2024-02-14T12:20:10;16.00;90.40
19007;DHT22;9636;47.382;8.480;2024-02-14T12:22:39;15.80;90.50
19007;DHT22;9636;47.382;8.480;2024-02-14T12:25:07;15.80;91.50
19007;DHT22;9636;47.382;8.480;2024-02-14T12:27:36;15.70;90.90
19007;DHT22;9636;47.382;8.480;2024-02-14T12:30:04;15.60;90.70
19007;DHT22;9636;47.382;8.480;2024-02-14T12:32:31;15.70;90.50
19007;DHT22;9636;47.382;8.480;2024-02-14T12:34:58;15.60;92.00
19007;DHT22;9636;47.382;8.480;2024-02-14T12:37:26;15.70;92.00
19007;DHT22;9636;47.382;8.480;2024-02-14T12:39:53;15.80;92.00
19007;DHT22;9636;47.382;8.480;2024-02-14T12:42:21;15.80;92.00
19007;DHT22;9636;47.382;8.480;2024-02-14T12:44:51;15.80;91.70
19007;DHT22;9636;47.382;8.480;2024-02-14T12:47:18;15.70;92.00
19007;DHT22;9636;47.382;8.480;2024-02-14T12:49:47;15.70;92.50
19007;DHT22;9636;47.382;8.480;2024-02-14T12:52:14;15.60;90.80
19007;DHT22;9636;47.382;8.480;2024-02-14T12:54:43;15.50;90.60
19007;DHT22;9636;47.382;8.480;2024-02-14T12:57:10;15.50;90.50
19007;DHT22;9636;47.382;8.480;2024-02-14T12:59:37;15.20;90.80
19007;DHT22;9636;47.382;8.480;2024-02-14T13:02:04;15.30;91.10
19007;DHT22;9636;47.382;8.480;2024-02-14T13:04:33;15.50;91.70
19007;DHT22;9636;47.382;8.480;2024-02-14T13:07:00;15.60;90.80
19007;DHT22;9636;47.382;8.480;2024-02-14T13:09:27;15.90;91.00
19007;DHT22;9636;47.382;8.480;2024-02-14T13:11:55;15.90;90.70
19007;DHT22;9636;47.382;8.480;2024-02-14T13:14:23;16.10;91.60
19007;DHT22;9636;47.382;8.480;2024-02-14T13:16:50;16.10;91.00
19007;DHT22;9636;47.382;8.480;2024-02-14T13:19:17;16.20;91.40
19007;DHT22;9636;47.382;8.480;2024-02-14T13:21:43;16.40;90.70
19007;DHT22;9636;47.382;8.480;2024-02-14T13:24:12;16.60;90.90
19007;DHT22;9636;47.382;8.480;2024-02-14T13:26:39;16.60;89.10
19007;DHT22;9636;47.382;8.480;2024-02-14T13:29:07;16.60;89.20
19007;DHT22;9636;47.382;8.480;2024-02-14T13:31:34;16.60;90.40
19007;DHT22;9636;47.382;8.480;2024-02-14T13:34:01;16.70;89.70
19007;DHT22;9636;47.382;8.480;2024-02-14T13:36:29;16.50;90.30
19007;DHT22;9636;47.382;8.480;2024-02-14T13:38:56;16.50;90.20
19007;DHT22;9636;47.382;8.480;2024-02-14T13:41:23;16.50;90.40
19007;DHT22;9636;47.382;8.480;2024-02-14T13:43:49;16.50;90.70
19007;DHT22;9636;47.382;8.480;2024-02-14T13:46:18;16.30;91.00
19007;DHT22;9636;47.382;8.480;2024-02-14T13:48:45;16.10;91.90
19007;DHT22;9636;47.382;8.480;2024-02-14T13:51:11;16.10;92.20
19007;DHT22;9636;47.382;8.480;2024-02-14T13:53:38;16.30;91.80
19007;DHT22;9636;47.382;8.480;2024-02-14T13:56:06;16.40;92.10
19007;DHT22;9636;47.382;8.480;2024-02-14T13:58:33;16.40;92.60
19007;DHT22;9636;47.382;8.480;2024-02-14T14:01:00;16.50;91.80
19007;DHT22;9636;47.382;8.480;2024-02-14T14:03:28;16.50;92.30
19007;DHT22;9636;47.382;8.480;2024-02-14T14:05:55;16.30;91.80
19007;DHT22;9636;47.382;8.480;2024-02-14T14:08:22;16.40;92.10
19007;DHT22;9636;47.382;8.480;2024-02-14T14:10:49;16.30;91.70
19007;DHT22;9636;47.382;8.480;2024-02-14T14:13:16;16.30;92.10
19007;DHT22;9636;47.382;8.480;2024-02-14T14:15:42;16.30;91.70
19007;DHT22;9636;47.382;8.480;2024-02-14T14:18:09;16.20;91.10
19007;DHT22;9636;47.382;8.480;2024-02-14T14:20:38;16.10;91.30
19007;DHT22;9636;47.382;8.480;2024-02-14T14:23:05;16.10;91.50
19007;DHT22;9636;47.382;8.480;2024-02-14T14:25:34;16.00;92.00
19007;DHT22;9636;47.382;8.480;2024-02-14T14:28:03;16.00;92.30
19007;DHT22;9636;47.382;8.480;2024-02-14T14:30:30;16.10;92.30
19007;DHT22;9636;47.382;8.480;2024-02-14T14:32:57;15.90;92.30
19007;DHT22;9636;47.382;8.480;2024-02-14T14:35:23;15.90;92.60
19007;DHT22;9636;47.382;8.480;2024-02-14T14:37:52;15.90;92.70
19007;DHT22;9636;47.382;8.480;2024-02-14T14:40:19;15.90;92.60
19007;DHT22;9636;47.382;8.480;2024-02-14T14:42:48;15.90;91.30
19007;DHT22;9636;47.382;8.480;2024-02-14T14:45:15;15.90;91.10
19007;DHT22;9636;47.382;8.480;2024-02-14T14:47:42;16.00;91.00
19007;DHT22;9636;47.382;8.480;2024-02-14T14:50:09;16.00;90.80
19007;DHT22;9636;47.382;8.480;2024-02-14T14:52:36;15.90;90.80
19007;DHT22;9636;47.382;8.480;2024-02-14T14:55:06;15.90;90.80
19007;DHT22;9636;47.382;8.480;2024-02-14T14:57:33;15.80;90.60
19007;DHT22;9636;47.382;8.480;2024-02-14T15:00:06;15.80;90.90
19007;DHT22;9636;47.382;8.480;2024-02-14T15:02:35;15.90;90.90
19007;DHT22;9636;47.382;8.480;2024-02-14T15:05:01;15.80;90.70
19007;DHT22;9636;47.382;8.480;2024-02-14T15:07:28;15.70;90.50
19007;DHT22;9636;47.382;8.480;2024-02-14T15:09:55;15.60;90.80
19007;DHT22;9636;47.382;8.480;2024-02-14T15:12:23;15.80;91.10
19007;DHT22;9636;47.382;8.480;2024-02-14T15:14:52;15.80;91.10
19007;DHT22;9636;47.382;8.480;2024-02-14T15:17:20;15.70;90.90
19007;DHT22;9636;47.382;8.480;2024-02-14T15:19:48;15.70;91.10
19007;DHT22;9636;47.382;8.480;2024-02-14T15:22:15;15.80;91.40
19007;DHT22;9636;47.382;8.480;2024-02-14T15:24:41;15.80;91.90
19007;DHT22;9636;47.382;8.480;2024-02-14T15:27:10;15.80;91.40
19007;DHT22;9636;47.382;8.480;2024-02-14T15:29:47;15.70;91.60
19007;DHT22;9636;47.382;8.480;2024-02-14T15:32:32;15.70;91.80
19007;DHT22;9636;47.382;8.480;2024-02-14T15:35:17;15.70;92.00
19007;DHT22;9636;47.382;8.480;2024-02-14T15:37:45;15.60;91.80
19007;DHT22;9636;47.382;8.480;2024-02-14T15:40:14;15.60;92.30
19007;DHT22;9636;47.382;8.480;2024-02-14T15:42:41;15.60;92.20
19007;DHT22;9636;47.382;8.480;2024-02-14T15:45:09;15.60;92.60
19007;DHT22;9636;47.382;8.480;2024-02-14T15:47:42;15.60;93.70
19007;DHT22;9636;47.382;8.480;2024-02-14T15:50:10;15.60;92.70
19007;DHT22;9636;47.382;8.480;2024-02-14T15:52:37;15.40;95.40
19007;DHT22;9636;47.382;8.480;2024-02-14T15:55:04;15.30;94.30
19007;DHT22;9636;47.382;8.480;2024-02-14T15:57:33;15.40;94.50